Newport (2Km) 08 Feb 04 Team Results Cache:11/12/2018 3:25:50 AM
Ocean Swim Series
OvP Name Time Swim Category Gender CtP Points
1 Peter Montgomerie 0:26:53 M20-29 M 1 100.00
2 Hamish Cameron 0:27:34 M30-39 M 1 99.07
3 Rioux Jew Sebastian 0:27:40 M20-29 M 2 98.93
4 Shelley Clarke 0:27:41 F20-29 F 1 100.00
5 Ned Robinson 0:28:28 Mu20 M 1 97.84
6 John de Mestre 0:28:29 M40-49 M 1 97.82
7 Daniel Mitchell 0:29:00 M20-29 M 3 96.45
8 Peter Thiel 0:29:00 M30-39 M 2 96.45
9 Sasha Saharou 0:29:24 M30-39 M 3 96.57
10 Lyane Rowe 0:29:28 Fu20 F 1 97.87
11 Daniel McGlade 0:29:29 Mu20 M 2 96.45
12 Chad Schneider 0:29:29 M30-39 M 4 96.45
13 Sean Daly 0:29:30 M30-39 M 5 96.43
14 Andrea Whitcombe 0:29:30 F30-39 F 1 97.83
15 Sean Green 0:29:47 M20-29 M 4 96.04
16 David McGlade 0:29:52 Mu20 M 3 95.93
17 Justin Lennon 0:29:55 M30-39 M 6 95.86
19 Jason Salisbery 0:30:01 Mu20 M 4 95.73
20 Cal Macleod 0:30:16 M20-29 M 5 95.38
21 Mark Lowe 0:30:22 M40-49 M 3 95.25
18 Michael Levy 0:30:30 M40-49 M 2 95.07
22 Tim Porter 0:30:32 M20-29 M 6 95.02
23 Patrick Ellis 0:30:34 M30-39 M 7 94.97
24 Kylie Elbourne 0:30:44 F20-29 F 2 96.36
25 Michael King 0:30:49 M30-39 M 8 94.63
26 Josef Kysilka 0:30:53 M30-39 M 9 94.54
27 Sophie Mackett 0:30:53 F30-39 F 2 96.18
28 Lily Mathews 0:30:53 F20-29 F 3 96.18
29 Scarlet Reid 0:31:03 F30-39 F 3 95.98
30 Peter Gregory 0:31:08 M30-39 M 10 94.20
31 Emma Struik 0:31:14 F30-39 F 4 95.76
32 James Powell 0:31:15 M30-39 M 11 94.04
33 Alex Matthews 0:31:17 Mu20 M 5 94.00
34 Stephen Doggett 0:31:19 M30-39 M 12 93.95
35 Mark Anderson 0:31:20 M50up M 1 93.93
36 Toby Matthews 0:31:21 M20-29 M 7 93.91
37 John Koorey 0:31:30 M50up M 2 93.70
38 Liz Vadas 0:31:30 F20-29 F 4 95.44
39 Grace Davies 0:31:31 Fu20 F 2 95.42
40 Matt Taylor 0:31:35 M20-29 M 8 93.59
41 Jackie Stewart 0:31:36 F30-39 F 5 95.32
42 James Brooks 0:31:40 M30-39 M 13 93.47
43 Paul Rutter 0:31:45 M30-39 M 14 93.36
44 Rob Fishbeck 0:32:03 M30-39 M 15 92.95
45 Howard Roby 0:32:03 M50up M 3 92.95
46 Mark Patterson 0:32:05 M40-49 M 4 92.91
47 Alison Coyle 0:32:06 F20-29 F 5 94.72
48 James Triglone 0:32:15 Mu20 M 6 92.68
49 Dillon Martin 0:32:20 M20-29 M 9 92.56
50 Mark Devin 0:32:22 M40-49 M 5 92.52
51 Tim Hixson 0:32:23 M50up M 4 92.50
52 Michael Briansby 0:32:24 M40-49 M 6 92.47
53 Peter Saba 0:32:25 M50up M 5 92.45
54 James Morris 0:32:26 M30-39 M 16 92.43
55 Russel Ferguson 0:32:30 M30-39 M 17 92.34
56 Michael Heeks 0:32:30 M30-39 M 18 92.34
57 Leigh Skinner 0:32:32 M30-39 M 19 92.29
58 Peter Kelly 0:32:35 M30-39 M 20 92.22
59 Brian Standlick 0:32:35 M40-49 M 7 92.22
60 Jennifer Spencer 0:32:36 F20-29 F 6 94.12
61 Charm Frend 0:32:40 F30-39 F 6 94.05
62 Tony Vipond 0:32:45 M40-49 M 8 92.00
63 Nick Carroll 0:32:48 M40-49 M 9 91.93
64 Bryce Songberg 0:32:49 M40-49 M 10 91.91
65 Alex Predegast 0:32:50 M30-39 M 21 91.88
66 Denis Miller 0:32:52 M50up M 6 91.84
67 Cheyne James 0:32:59 Mu20 M 7 91.68
68 Peter Kellaway 0:32:59 M30-39 M 22 91.68
69 Richard Smith 0:32:59 Mu20 M 8 91.68
70 Betsy Connolly 0:33:02 F20-29 F 7 93.61
72 Christina Laws 0:33:04 F20-29 F 8 93.57
71 Paul Carruthers 0:33:04 M30-39 M 23 91.56
73 Tony Wozniak 0:33:04 M40-49 M 11 91.56
74 John McClelland 0:33:05 M30-39 M 24 91.54
75 John Kelly 0:33:16 M30-39 M 25 91.29
76 David Helsham 0:33:21 M50up M 7 91.18
77 Adrian Miller 0:33:28 M30-39 M 26 91.02
78 Duncan Stewart 0:33:28 M30-39 M 27 91.02
79 Colin Hannah 0:33:29 M20-29 M 10 91.00
80 Lucas Molloy 0:33:31 M30-39 M 28 90.95
81 Rose Saltman 0:33:31 F50up F 1 93.03
82 Jason Borg 0:33:41 M30-39 M 29 90.72
83 David Bottomley 0:33:44 M30-39 M 30 90.65
84 Richard Hardwick 0:33:44 M40-49 M 12 90.65
85 Gregory Waddington 0:33:44 Mu20 M 9 90.65
86 Josh Hamill 0:33:46 M30-39 M 31 90.61
87 Anthony Miller 0:33:47 M30-39 M 32 90.59
88 Charlie Brockoff 0:33:50 M30-39 M 33 90.52
89 Mark Williams 0:33:56 M30-39 M 34 90.38
90 Jason Borkowski 0:33:59 M30-39 M 35 90.31
92 Anthony Scott 0:34:03 M30-39 M 36 90.22
93 Patrick Cogan 0:34:05 M20-29 M 11 90.18
94 Jim Schafer 0:34:10 M50up M 8 90.06
95 Sharyn Swanson 0:34:10 F30-39 F 7 92.25
96 Stephen Carlin 0:34:11 M40-49 M 14 90.04
97 Adam Casselden 0:34:12 M30-39 M 37 90.02
98 Alex Thorpe 0:34:12 M20-29 M 12 90.02
99 David Cregorg 0:34:13 M30-39 M 38 90.00
100 Alison Mayes 0:34:14 F20-29 F 9 92.17
101 Mark Smith 0:34:23 M30-39 M 39 89.77
102 Simon King 0:34:24 M30-39 M 40 89.75
103 Roemary Leamon 0:34:24 F40-49 F 1 91.97
104 Ben Dunnet 0:34:28 M30-39 M 41 89.65
105 Fiona Dobrijevica 0:34:30 F40-49 F 2 91.85
106 Bradley Johnson 0:34:32 M30-39 M 42 89.56
107 Peter Williams 0:34:33 M40-49 M 15 89.54
91 Craig Meiring 0:34:34 M40-49 M 13 89.52
109 Neil Schaffer 0:34:45 M50up M 9 89.27
108 Clare Payne 0:34:45 F20-29 F 10 91.56
110 Rob Corbett 0:34:46 M20-29 M 13 89.25
111 Soo Oh 0:34:51 F20-29 F 11 91.44
113 Malcolm Brown 0:35:01 M40-49 M 17 88.90
114 Scott Govenlock 0:35:02 M30-39 M 43 88.88
115 Stacey Bryant 0:35:04 F20-29 F 12 91.18
116 Richard Hutchings 0:35:08 M30-39 M 44 88.74
117 Greg Turner 0:35:10 M50up M 10 88.70
118 Adam Kalms 0:35:11 Mu20 M 10 88.68
119 David King 0:35:15 M30-39 M 45 88.59
120 Sam Serisier 0:35:19 M30-39 M 46 88.49
121 Kerri Rawlings 0:35:22 F30-39 F 8 90.82
122 Trent Chapman 0:35:24 M30-39 M 47 88.38
123 Guy De Carli 0:35:24 M40-49 M 18 88.38
124 Quintin Jones 0:35:25 M30-39 M 48 88.36
125 Jane Nixon 0:35:27 F20-29 F 13 90.72
126 Joe Watkins 0:35:32 M30-39 M 49 88.20
127 Susan Barrett 0:35:34 F20-29 F 14 90.58
128 Heather Hozack 0:35:35 F20-29 F 15 90.56
112 Chris Shaw 0:35:35 M40-49 M 16 88.13
129 Ken Harris 0:35:37 M40-49 M 19 88.09
130 Frederick Schreuder 0:35:41 M30-39 M 50 87.99
131 Alexander Short 0:35:45 M30-39 M 51 87.90
133 Simon Wilson 0:35:45 M30-39 M 52 87.90
132 Jenny Wetton 0:35:45 F40-49 F 3 90.36
134 Tim du Temple 0:35:50 M30-39 M 53 87.79
135 David Birchan 0:35:52 M40-49 M 20 87.74
136 Gillian Lynch 0:36:06 F30-39 F 9 89.94
137 Mark Kehoe 0:36:07 M30-39 M 54 87.40
138 Brendan Giles 0:36:08 M30-39 M 55 87.38
139 Marcus Hamill 0:36:09 M30-39 M 56 87.36
140 Clare Netherton 0:36:09 F30-39 F 10 89.88
141 Kieran Kobelke 0:36:10 Mu20 M 11 87.34
142 Diane Van Ooi 0:36:13 F40-49 F 4 89.80
143 Andrew Newman 0:36:15 M40-49 M 21 87.22
144 Les Richardson 0:36:17 M40-49 M 22 87.18
146 Peter Gibson 0:36:20 M40-49 M 24 87.11
145 Ian Davidson 0:36:20 M40-49 M 23 87.11
147 Sarah Johns 0:36:20 Fu20 F 3 89.66
148 Rob McCabe 0:36:20 M30-39 M 57 87.11
149 Simon Brown 0:36:23 M30-39 M 58 87.04
150 John Ludeke 0:36:25 M50up M 11 86.99
152 Tony Moore 0:36:29 M40-49 M 25 86.90
151 Les Lindsay 0:36:29 M50up M 12 86.90
154 John Tremain 0:36:30 M50up M 13 86.88
153 Anthony Mcshane 0:36:30 M30-39 M 59 86.88
155 Gary Damp 0:36:31 M40-49 M 26 86.86
156 John Kelso 0:36:32 M50up M 14 86.83
158 David Norris 0:36:34 M50up M 15 86.79
157 Suanne Hunt 0:36:34 F40-49 F 5 89.39
159 Stephen Smith 0:36:37 M30-39 M 60 86.72
161 Rhys Williams 0:36:40 M20-29 M 14 86.65
160 Warwick Jackson 0:36:40 M30-39 M 61 86.65
162 Kevin Marr 0:36:42 M30-39 M 62 86.61
163 Niell Boustred 0:36:44 M40-49 M 27 86.56
164 Craig Leistad 0:36:47 M30-39 M 63 86.49
165 Christopher Gibbs 0:36:51 M40-49 M 28 86.40
166 Alex Wheelahan 0:36:52 M20-29 M 15 86.38
167 Denise Elder 0:36:53 F50up F 2 89.01
168 Rob Wellborne 0:36:54 M30-39 M 64 86.33
169 Grant Millington 0:37:02 M40-49 M 29 86.15
170 Robert Hartwell 0:37:04 M30-39 M 65 86.11
183 Stuart Love 0:37:04 M30-39 M 66 86.11
171 Rosalind Elliott 0:37:06 F30-39 F 11 88.75
172 Sam Clarkson 0:37:08 Mu20 M 12 86.02
173 Tamara Selwood 0:37:09 F20-29 F 16 88.69
174 Grant Carter 0:37:10 M20-29 M 16 85.97
175 David Ross 0:37:10 M50up M 16 85.97
176 Sharon Johnson 0:37:17 F20-29 F 17 88.53
177 Peter Navratil 0:37:18 M40-49 M 30 85.79
178 Tony Wetton 0:37:21 M40-49 M 31 85.72
179 Bruce Burns 0:37:25 M50up M 17 85.63
180 Susan Nicholson 0:37:25 F40-49 F 6 88.37
182 Michael Mannix 0:37:29 M40-49 M 33 85.54
181 Andy France 0:37:29 M40-49 M 32 85.54
184 Mark Ansiewicz 0:37:43 M40-49 M 34 85.22
185 Lawrence Nethery 0:37:52 M40-49 M 35 85.02
186 Hugh Gallagher 0:37:58 M40-49 M 36 84.88
187 Tom Longworth 0:37:58 Mu20 M 13 84.88
191 Michael Finlay 0:38:09 M40-49 M 38 84.63
192 Jeremy Bradshaw 0:38:12 M30-39 M 67 84.56
193 Toby Brittan 0:38:12 M20-29 M 17 84.56
194 Scott Kirchner 0:38:16 M30-39 M 68 84.47
195 Mark Dawson 0:38:19 M30-39 M 69 84.40
196 John Rickard 0:38:20 M40-49 M 39 84.38
197 John Slater 0:38:20 M20-29 M 18 84.38
198 Robert Frizza 0:38:23 M40-49 M 40 84.31
199 Brian Cox 0:38:26 M30-39 M 70 84.24
200 Bobbie Winger 0:38:27 F50up F 3 87.13
201 Bill Douglas 0:38:29 M50up M 19 84.17
202 Stuart Graham 0:38:30 M40-49 M 41 84.15
203 Jonathon Gittoes 0:38:33 M40-49 M 42 84.08
204 Georgina Mahony 0:38:36 F20-29 F 19 86.96
190 Kate Slack 0:38:38 F20-29 F 18 86.92
188 Alex Hamill 0:38:38 M50up M 18 83.97
189 John Macleay 0:38:38 M40-49 M 37 83.97
205 Richard Banks 0:38:38 M20-29 M 19 83.97
206 Ben Cunningham 0:38:38 M20-29 M 20 83.97
207 Carl Nouak 0:38:40 Mu20 M 14 83.92
208 Mick Roche 0:38:40 M20-29 M 21 83.92
209 Maddy Ottowa 0:38:44 Fu20 F 4 86.80
210 Warwick Pearse 0:38:47 M50up M 20 83.77
211 Nicky Oliver 0:38:49 F30-39 F 12 86.70
212 Raymond Balcomb 0:38:50 M40-49 M 43 83.70
213 Daryl Phillips 0:38:50 M30-39 M 71 83.70
214 Jeffrey Sanders 0:38:52 M40-49 M 44 83.65
215 Ben Lopewijks 0:38:53 Mu20 M 15 83.63
216 Matt Russell 0:38:57 M30-39 M 72 83.54
217 Martin Cork 0:38:59 M40-49 M 45 83.49
218 Tony Payne 0:39:02 M40-49 M 46 83.42
219 Brett Baldwin 0:39:06 M20-29 M 22 83.33
220 David Doyle 0:39:06 M40-49 M 47 83.33
221 Mark Hennessy 0:39:06 M50up M 21 83.33
222 Lionel Fargher 0:39:07 M50up M 22 83.31
223 Sophie St.Clair 0:39:07 F20-29 F 20 86.34
224 Brendon Murphy 0:39:08 M40-49 M 48 83.29
225 Scott Astley 0:39:19 M30-39 M 73 83.04
226 Lester Miller 0:39:28 M20-29 M 23 82.83
227 Steven Gough 0:39:30 M40-49 M 49 82.79
228 Philip Rosati 0:39:30 M40-49 M 50 82.79
229 Chris Boffa 0:39:40 M50up M 23 82.56
230 Brad Eastwood 0:39:43 M30-39 M 74 82.49
231 Linday May 0:39:44 M50up M 24 82.47
232 Grahame Tate 0:39:48 M40-49 M 51 82.38
234 Craig Williams 0:39:50 M40-49 M 52 82.33
233 Melissa Blundell 0:39:50 F30-39 F 13 85.48
235 Danielle Wards 0:39:52 F20-29 F 21 85.44
236 Christine Macmillian 0:39:55 F30-39 F 14 85.38
237 T Payne 0:39:58 M40-49 M 53 82.15
239 Stephen Graham 0:40:01 M20-29 M 24 82.08
240 Scott Kilpatrick 0:40:05 Mu20 M 16 81.99
241 Mark Lyster 0:40:05 M40-49 M 54 81.99
242 Chloe Neil 0:40:05 F20-29 F 22 85.18
243 Amanda Davis 0:40:06 F20-29 F 23 85.16
244 Simon Moore 0:40:06 M30-39 M 76 81.97
245 Matthew Smith 0:40:06 M20-29 M 25 81.97
246 Tom Story 0:40:08 M20-29 M 26 81.92
247 Michael Campbell 0:40:10 M30-39 M 77 81.88
248 Craig Dober 0:40:10 M40-49 M 55 81.88
249 Robert Mirami 0:40:10 M30-39 M 78 81.88
250 Cherie Jane Bird 0:40:13 F40-49 F 7 85.02
251 Lindy Kennikell 0:40:14 F50up F 4 85.00
252 Margaret McDonald 0:40:14 F40-49 F 8 85.00
253 Anna Keft 0:40:16 Fu20 F 5 84.96
254 Melinda Watson 0:40:20 F20-29 F 24 84.88
255 Sally Jarvis 0:40:25 F20-29 F 25 84.78
256 Mark Buhagiar 0:40:33 M40-49 M 56 81.36
257 David Earls 0:40:34 M30-39 M 79 81.33
258 Darren Johns 0:40:34 M20-29 M 27 81.33
259 Donna Tasker 0:40:34 F30-39 F 15 84.61
260 John Bloeman 0:40:36 M30-39 M 80 81.29
261 Phil Reichelt 0:40:36 M30-39 M 81 81.29
262 John Davy 0:40:38 M50up M 25 81.24
263 Tino Di Bello 0:40:38 M40-49 M 57 81.24
264 Steve Betts 0:40:40 M30-39 M 82 81.20
265 Alexander Reid 0:40:40 Mu20 M 17 81.20
266 Hamish Sutherland 0:40:40 Mu20 M 18 81.20
238 Andrew O'Reilly 0:40:40 M30-39 M 75 81.20
267 Michael Ayres 0:40:43 M50up M 26 81.13
268 Jamie Borg 0:40:45 M30-39 M 83 81.08
269 Thomas Fejes 0:40:45 M30-39 M 84 81.08
270 Johnathan Poynter 0:40:45 M30-39 M 85 81.08
271 Jim Delahunty 0:40:47 M40-49 M 58 81.04
272 Jon Attwater 0:40:49 M50up M 27 80.99
273 Michael Lindrum 0:40:51 M20-29 M 28 80.95
274 Kristian Kouaks 0:40:52 F30-39 F 16 84.25
276 Kate Maslen 0:40:53 F30-39 F 17 84.23
275 Nikki Buttfield 0:40:53 F20-29 F 26 84.23
277 Steve Hatt 0:40:54 M40-49 M 59 80.88
279 Susie Graham 0:40:55 F30-39 F 19 84.19
278 Philippa Graham 0:40:55 F30-39 F 18 84.19
280 David Goldstein 0:40:56 M30-39 M 86 80.83
281 Peter Stapley 0:40:56 M20-29 M 29 80.83
282 Peter Zalesvla 0:40:56 M30-39 M 87 80.83
283 Dave Limon 0:40:58 M30-39 M 88 80.79
284 Paul Evans 0:40:59 M30-39 M 89 80.76
286 Ian Davis 0:41:04 M40-49 M 60 80.65
287 David Brooks 0:41:05 M40-49 M 61 80.63
288 Chantal Young 0:41:06 F20-29 F 27 83.97
289 Sophie Tyner 0:41:09 F20-29 F 28 83.91
291 Merryn Turner 0:41:15 F40-49 F 9 83.79
290 David Day 0:41:15 M50up M 29 80.40
292 Kim Preston 0:41:19 F50up F 5 83.71
293 Jenny Pysden 0:41:22 F30-39 F 20 83.65
294 Peter Roberts 0:41:27 M40-49 M 62 80.13
295 Sue Lowe 0:41:30 F30-39 F 21 83.49
296 Greg Barwell 0:41:33 M30-39 M 90 79.99
297 Peter Mathews 0:41:34 M50up M 30 79.97
298 Andrew Clarke 0:41:35 M40-49 M 63 79.95
299 Dana Williams 0:41:40 F20-29 F 29 83.29
300 Rebecca Blaxland 0:41:41 F20-29 F 30 83.27
285 David Robinson 0:41:41 M50up M 28 79.81
301 Barry Carter 0:41:44 M50up M 31 79.74
302 James Ley 0:41:45 M30-39 M 91 79.72
303 Megan Lawrance 0:41:46 F20-29 F 31 83.17
304 Vincent Gioarke 0:41:51 M30-39 M 92 79.58
305 Paul Anderson 0:41:57 M30-39 M 93 79.45
306 Rob Barkley 0:41:58 M40-49 M 64 79.42
307 Bill Inglis 0:41:58 M40-49 M 65 79.42
308 Sarah Uther 0:42:01 F30-39 F 22 82.87
309 Nicholas Wade 0:42:04 M20-29 M 30 79.29
310 Andrew Birch 0:42:05 M20-29 M 31 79.26
311 Stephen Grundy 0:42:08 M30-39 M 94 79.19
312 Cathy Malloy 0:42:09 F30-39 F 23 82.71
315 Jan Sourgood 0:42:10 F40-49 F 10 82.69
313 Bill Bewsher 0:42:10 M50up M 32 79.15
314 Brett Larkin 0:42:10 M40-49 M 66 79.15
316 Darren Charles 0:42:11 M30-39 M 95 79.13
317 Tony De Angeli 0:42:12 M30-39 M 96 79.10
318 Andrew Love 0:42:25 M30-39 M 97 78.81
320 Mark Broadhead 0:42:30 M30-39 M 98 78.69
321 Grant Dargue 0:42:30 M40-49 M 67 78.69
322 David McGliney 0:42:30 M30-39 M 99 78.69
323 Shirley Rose 0:42:30 F40-49 F 11 82.30
319 Janine Baker 0:42:30 F30-39 F 24 82.30
324 Eliza Bryant 0:42:35 F30-39 F 25 82.20
325 Claire Gorman 0:42:38 F30-39 F 26 82.14
326 Bill Vickers 0:42:38 M40-49 M 68 78.51
327 Deanna Sorensen 0:42:41 F30-39 F 27 82.08
328 Natasha Reddrop-Bekes 0:42:48 F20-29 F 32 81.94
329 Harry Bundock 0:42:55 M30-39 M 100 78.13
330 Chris Milne 0:42:57 M50up M 33 78.08
331 Michael Christie 0:42:58 M50up M 34 78.06
332 Ludyuila Suba 0:42:59 F40-49 F 12 81.72
333 Donald Miles 0:43:03 M50up M 35 77.94
334 Justin Miles 0:43:04 M20-29 M 32 77.92
335 Peter Vaughan 0:43:08 M40-49 M 69 77.83
336 Robert Hensby 0:43:10 M20-29 M 33 77.79
337 Vanessa Sefton 0:43:16 F20-29 F 33 81.38
338 Margo Lundgren 0:43:20 F30-39 F 28 81.30
339 Victoria Vildzius 0:43:20 F20-29 F 34 81.30
340 Tom Cahill 0:43:23 M30-39 M 101 77.49
341 Kate Serisier 0:43:24 F30-39 F 29 81.22
342 Geoff Tye 0:43:27 M40-49 M 70 77.40
345 Lulu Vasconcellos 0:43:28 F30-39 F 30 81.14
343 Perwicle Day 0:43:28 F40-49 F 13 81.14
344 Robyn Gardner 0:43:28 F40-49 F 14 81.14
346 Sam Shepherd 0:43:32 M30-39 M 102 77.29
347 John Holmes 0:43:35 M50up M 36 77.22
348 Brian Timney 0:43:35 M40-49 M 71 77.22
350 Andrew Reynolds 0:43:41 M20-29 M 34 77.08
351 Brian Stone 0:43:41 M40-49 M 72 77.08
349 Sue Chennell 0:43:41 F30-39 F 31 80.88
352 Kristy Page 0:43:44 F30-39 F 32 80.82
353 Mark Cashman 0:43:45 M40-49 M 73 76.99
355 Bill Macrow 0:43:45 M40-49 M 74 76.99
354 Cameron Clyne 0:43:45 M30-39 M 103 76.99
356 Marc L Muillier 0:43:51 M30-39 M 104 76.85
357 Sue Jones 0:43:54 F30-39 F 33 80.62
358 Petra Playfair 0:43:57 F40-49 F 15 80.56
359 Katie Bryan-Jones 0:43:58 F20-29 F 35 80.54
361 Peter Joseph 0:44:10 M50up M 37 76.42
362 Harriet Hindlet 0:44:12 F20-29 F 36 80.26
363 Dugal Walker 0:44:18 M50up M 38 76.24
364 Cliff Barry 0:44:25 M40-49 M 76 76.08
365 Tim Cooper 0:44:32 M50up M 39 75.92
366 Bruce Killingworth 0:44:34 M50up M 40 75.88
367 Ian Gorthwaile 0:44:35 M30-39 M 105 75.85
368 Paul Walker 0:44:41 M20-29 M 35 75.72
360 Peter Robinson 0:44:44 M40-49 M 75 75.65
369 Greg Pride 0:44:46 M50up M 41 75.60
370 Simon Wallace 0:44:48 M30-39 M 106 75.56
371 John Dillow 0:44:50 M30-39 M 107 75.51
372 Christine George 0:44:57 F30-39 F 34 79.37
374 Simon Holmes 0:45:02 M40-49 M 78 75.24
376 Hamish Lock 0:45:05 M30-39 M 108 75.17
375 Linda Hoker 0:45:05 F30-39 F 35 79.21
377 Jonathon van Bilson 0:45:07 M30-39 M 109 75.12
378 Susie Stanton 0:45:08 F40-49 F 16 79.15
379 Brendan Maher 0:45:10 M40-49 M 79 75.06
381 John Macartney 0:45:14 M50up M 42 74.97
380 Anna Little 0:45:14 F50up F 6 79.03
382 Andrew Hope 0:45:24 M30-39 M 110 74.74
383 Fleur Doonan 0:45:35 F30-39 F 36 78.61
384 Brenda Hamill 0:45:42 F50up F 7 78.47
385 Louise Woods 0:45:42 F30-39 F 37 78.47
386 Ilman Weemees 0:45:44 M30-39 M 111 74.28
373 Paul Baker 0:45:45 M40-49 M 77 74.26
387 Melanie Mail 0:45:46 F20-29 F 37 78.39
388 Celia Bentlety 0:45:47 F20-29 F 38 78.37
389 Janindra Warusavitcove 0:45:57 M30-39 M 112 73.99
390 Josie Lahey 0:45:59 F30-39 F 38 78.13
391 Barry Lang 0:46:09 M50up M 43 73.72
392 Alex Vipond 0:46:10 Mu20 M 19 73.69
393 Kyle Wilkinson 0:46:26 M40-49 M 80 73.33
394 Dale Craig 0:46:28 M50up M 44 73.28
395 Kym Charles 0:46:30 F40-49 F 17 77.52
396 Jo Moore 0:46:48 F30-39 F 39 77.16
397 Garry Fitzgerald 0:46:49 M40-49 M 81 72.81
398 Nigel Grayshon 0:46:52 M40-49 M 82 72.74
400 Irene Jarosinski 0:47:12 F20-29 F 39 76.68
401 Leola Lachs 0:47:13 F30-39 F 40 76.66
402 Stephen Normoyle 0:47:17 M40-49 M 84 72.17
403 Matthew Woodman 0:47:21 M20-29 M 36 72.08
404 Elhe Watson 0:47:36 F30-39 F 41 76.20
405 Peter Thomas 0:47:37 M50up M 45 71.71
406 Sarah Garnett 0:47:43 F40-49 F 18 76.06
399 Keith Richardson 0:47:47 M40-49 M 83 71.49
407 Noel Peters 0:47:53 M50up M 46 71.35
408 Charlotte Curtis 0:47:55 F20-29 F 40 75.82
411 Imogen Merrony 0:48:02 Fu20 F 6 75.68
413 Margaret Perkin 0:48:06 F50up F 9 75.60
412 Jeanette Lloyd-Jones 0:48:06 F50up F 8 75.60
415 James Reynolds 0:48:10 M50up M 48 70.96
414 Bob Allo 0:48:10 M40-49 M 86 70.96
416 Geogg Honey 0:48:11 M50up M 49 70.94
417 Mark Van Kool 0:48:12 M40-49 M 87 70.92
418 Claire Dawson 0:48:13 F20-29 F 41 75.46
419 David Stilverton 0:48:16 M20-29 M 37 70.83
420 Guy Jennings 0:48:20 M50up M 50 70.74
421 David Croston 0:48:21 M50up M 51 70.71
422 Gillian Dear 0:48:21 F20-29 F 42 75.30
423 Gordon Duncan 0:48:26 M30-39 M 113 70.60
424 Victoria Ireland 0:48:41 F40-49 F 19 74.91
410 Peter Radonyi 0:48:48 M40-49 M 85 70.10
409 Julian Canny 0:48:48 M50up M 47 70.10
425 Gregory Hancock 0:48:50 M50up M 52 70.05
426 Tom Keft 0:48:54 Mu20 M 20 69.96
427 James Snowden 0:49:10 M40-49 M 88 69.60
428 Phil Martin 0:49:15 M50up M 53 69.49
430 Peter Rolston 0:49:30 M50up M 55 69.14
429 Bob Kerslake 0:49:30 M50up M 54 69.14
431 Annie Scott 0:49:37 F40-49 F 20 73.79
432 Hugh MacNally 0:49:51 M50up M 56 68.67
433 Alan Murray 0:49:59 M50up M 57 68.49
436 Tony Johnson 0:50:06 M50up M 58 68.33
437 Stephen Martin 0:50:10 M40-49 M 90 68.24
438 Ana Swarowsky 0:50:10 F20-29 F 43 73.13
440 Nicole Robb 0:50:15 F20-29 F 44 73.03
439 Peter Brown 0:50:15 M50up M 59 68.12
441 Sharon Callister 0:50:22 F40-49 F 22 72.89
444 Bianca Bratton 0:50:25 Fu20 F 7 72.84
443 Alex Bentley 0:50:25 Mu20 M 21 67.89
442 David Barnett 0:50:25 M50up M 60 67.89
445 Cathy Vander Buvencump 0:50:26 F30-39 F 42 72.82
446 Margaret Benjamin 0:50:36 F30-39 F 43 72.62
435 Jane Trumpe 0:50:50 F40-49 F 21 72.34
434 Paul Miniter 0:50:50 M40-49 M 89 67.33
447 Peter Schear 0:50:52 M30-39 M 114 67.28
449 Rex O'Rouke 0:51:16 M40-49 M 91 66.73
450 Robyn Geodes 0:51:17 M40-49 M 92 66.71
451 Jacqueline Leonard 0:51:30 F40-49 F 23 71.54
452 Cecily Black 0:51:35 F50up F 10 71.44
453 Bill Thompson 0:51:45 M50up M 61 66.08
454 Ian Martin 0:51:47 M40-49 M 93 66.03
448 Ryley Baker 0:51:51 Mu20 M 22 65.94
455 Susie Yates 0:52:10 F30-39 F 44 70.74
456 William Elliott 0:52:12 M50up M 62 65.46
457 Allan Autchenson 0:52:20 M50up M 63 65.28
458 Chris Carter 0:52:23 M20-29 M 38 65.21
459 Katherie Moschakis 0:52:23 F30-39 F 45 70.49
460 Ashlini Phillips 0:52:25 F30-39 F 46 70.45
461 Frederick Cahill 0:52:28 M30-39 M 115 65.10
462 Peter Bishop 0:52:33 M50up M 64 64.98
463 Malcom Holmes 0:52:44 M50up M 65 64.73
464 Paul Carter 0:52:45 M50up M 66 64.71
465 Tony Porter 0:52:51 M40-49 M 94 64.57
466 Oliver Crosse 0:52:55 M40-49 M 95 64.48
467 John Guthrie 0:52:58 M50up M 67 64.42
468 Mike Dickens 0:53:06 M50up M 68 64.23
469 Raymond Close 0:53:07 M50up M 69 64.21
470 Denis Ward 0:53:07 M50up M 70 64.21
471 Tracey Love 0:53:17 F30-39 F 47 69.41
472 Patricia Martinburke 0:53:33 F40-49 F 24 69.09
473 Vincent Martinon Burke 0:53:35 M40-49 M 96 63.57
474 Nadine Serman 0:53:41 F30-39 F 48 68.93
475 Joanne O'Neill 0:53:44 F30-39 F 49 68.87
478 Sue Spring 0:54:09 F40-49 F 25 68.37
477 Selwyn Segall 0:54:09 M40-49 M 98 62.80
479 Pip Stanger 0:54:13 F20-29 F 45 68.29
480 Ian Felton 0:54:15 M50up M 71 62.66
481 Michael Gray 0:54:16 M40-49 M 99 62.64
482 Jill Meares 0:54:16 F50up F 11 68.23
483 Terry Short 0:54:31 M50up M 72 62.30
484 John Sherman 0:54:33 M50up M 73 62.26
485 Derel Perrin 0:54:34 M50up M 74 62.23
486 Wayne Marler 0:54:38 M50up M 75 62.14
487 Graham Willis 0:54:40 M50up M 76 62.10
476 Paul Rachow 0:54:54 M40-49 M 97 61.78
489 Brian Branningon 0:55:13 M40-49 M 100 61.35
490 Ross Martin 0:55:26 M50up M 77 61.05
491 Stephen Edwards 0:55:38 M40-49 M 101 60.78
488 Nadia McNicol 0:55:55 F30-39 F 50 66.26
492 Richard Porter 0:56:24 M40-49 M 102 59.73
493 Nola Katakouzin 0:56:28 F30-39 F 51 65.61
494 Veronica Dunn 0:56:36 Fu20 F 8 65.45
495 Caroline Bergman 0:56:45 F20-29 F 46 65.27
496 Marc Skelton 0:56:51 M40-49 M 103 59.12
497 Kate Kilpatricks 0:57:04 F40-49 F 26 64.89
498 Jane Stevenson 0:57:08 F50up F 12 64.81
499 Susan Lodewijks 0:57:17 F40-49 F 27 64.63
500 Lynda Body 0:57:45 F20-29 F 47 64.07
501 Colin Weir 0:57:52 M30-39 M 116 57.73
502 Lily Maillen 0:58:11 F50up F 13 63.55
503 Alana Smithies 0:58:48 Fu20 F 9 62.82
504 David Dick-smith 1:01:09 M50up M 78 53.25
505 Francesca Cunningham 1:04:40 Fu20 F 10 55.81
506 Gaz Mason 1:39:27 M40-49 M 104 1.00
507 Louise Gruber 1:49:27 F40-49 F 28 2.29
508 Catherine Perkins 1:50:32 F30-39 F 52 1.00